createdAt,value
2023-01-23T00:01:26.491Z,101587.81
2023-01-23T00:03:54.183Z,101574.56
2023-01-23T00:06:20.860Z,101561.13
2023-01-23T00:08:47.899Z,101568.16
2023-01-23T00:11:20.635Z,101598.22
2023-01-23T00:13:47.359Z,101573.25
2023-01-23T00:16:17.323Z,101569.72
2023-01-23T00:18:44.375Z,101575.91
2023-01-23T00:21:13.364Z,101581.25
2023-01-23T00:23:42.981Z,101568.94
2023-01-23T00:26:12.489Z,101581.38
2023-01-23T00:28:39.081Z,101586.59
2023-01-23T00:31:13.073Z,101586.53
2023-01-23T00:33:40.455Z,101594.59
2023-01-23T00:36:07.585Z,101570.69
2023-01-23T00:38:34.602Z,101575.25
2023-01-23T00:41:02.354Z,101566.34
2023-01-23T00:43:30.099Z,101600.06
2023-01-23T00:45:57.257Z,101568.88
2023-01-23T00:48:24.162Z,101565.34
2023-01-23T00:50:51.112Z,101568.94
2023-01-23T00:53:17.673Z,101581.53
2023-01-23T00:55:44.204Z,101561.97
2023-01-23T00:58:10.951Z,101565.69
2023-01-23T01:00:38.092Z,101547.16
2023-01-23T01:03:05.632Z,101547.09
2023-01-23T01:05:32.498Z,101557.06
2023-01-23T01:07:59.082Z,101558.19
2023-01-23T01:10:29.427Z,101549.41
2023-01-23T01:12:57.654Z,101549.59
2023-01-23T01:15:24.446Z,101543.38
2023-01-23T01:17:53.722Z,101549.59
2023-01-23T01:20:23.537Z,101543.38
2023-01-23T01:22:50.693Z,101553.19
2023-01-23T01:25:17.845Z,101552.25
2023-01-23T01:27:44.644Z,101540.81
2023-01-23T01:30:12.063Z,101535.47
2023-01-23T01:32:39.768Z,101556.72
2023-01-23T01:35:07.334Z,101546.81
2023-01-23T01:37:34.981Z,101546.91
2023-01-23T01:40:01.678Z,101532.72
2023-01-23T01:42:28.569Z,101540.03
2023-01-23T01:44:59.905Z,101555.41
2023-01-23T01:47:27.080Z,101547.50
2023-01-23T01:49:57.334Z,101558.19
2023-01-23T01:52:24.451Z,101552.06
2023-01-23T01:54:56.048Z,101551.19
2023-01-23T01:57:24.064Z,101570.03
2023-01-23T02:00:09.349Z,101555.84
2023-01-23T02:02:43.787Z,101561.41
2023-01-23T02:05:16.239Z,101571.47
2023-01-23T02:07:54.300Z,101563.47
2023-01-23T02:10:22.116Z,101554.69
2023-01-23T02:12:50.099Z,101570.69
2023-01-23T02:15:17.837Z,101574.16
2023-01-23T02:17:45.477Z,101555.66
2023-01-23T02:20:21.384Z,101569.00
2023-01-23T02:23:09.588Z,101564.59
2023-01-23T02:25:44.955Z,101569.16
2023-01-23T02:28:12.972Z,101575.44
2023-01-23T02:30:41.107Z,101579.81
2023-01-23T02:33:08.873Z,101580.06
2023-01-23T02:35:35.866Z,101587.44
2023-01-23T02:38:05.193Z,101585.78
2023-01-23T02:40:37.302Z,101580.63
2023-01-23T02:43:04.510Z,101571.69
2023-01-23T02:45:31.338Z,101568.09
2023-01-23T02:47:58.011Z,101573.44
2023-01-23T02:50:24.578Z,101564.56
2023-01-23T02:52:54.243Z,101550.34
2023-01-23T02:55:22.076Z,101562.81
2023-01-23T02:57:48.627Z,101558.47
2023-01-23T03:00:20.748Z,101574.59
2023-01-23T03:02:48.950Z,101565.81
2023-01-23T03:05:16.631Z,101548.97
2023-01-23T03:07:43.373Z,101550.78
2023-01-23T03:10:11.389Z,101548.19
2023-01-23T03:12:43.456Z,101541.09
2023-01-23T03:15:10.171Z,101534.13
2023-01-23T03:17:36.957Z,101536.00
2023-01-23T03:20:05.997Z,101547.78
2023-01-23T03:22:32.507Z,101547.88
2023-01-23T03:24:59.094Z,101533.75
2023-01-23T03:27:25.683Z,101535.53
2023-01-23T03:30:10.827Z,101521.44
2023-01-23T03:32:38.616Z,101528.59
2023-01-23T03:35:06.992Z,101529.34
2023-01-23T03:37:33.535Z,101526.56
2023-01-23T03:40:18.903Z,101520.34
2023-01-23T03:42:45.650Z,101521.38
2023-01-23T03:45:12.236Z,101505.69
2023-01-23T03:47:38.724Z,101511.66
2023-01-23T03:50:06.322Z,101488.78
2023-01-23T03:52:32.849Z,101490.84
2023-01-23T03:54:59.416Z,101485.59
2023-01-23T03:57:25.942Z,101480.25
2023-01-23T03:59:52.437Z,101478.63
2023-01-23T04:02:19.102Z,101477.06
2023-01-23T04:04:45.734Z,101456.06
2023-01-23T04:07:12.253Z,101455.47
2023-01-23T04:09:38.863Z,101457.72
2023-01-23T04:12:05.561Z,101456.25
2023-01-23T04:14:37.191Z,101467.97
2023-01-23T04:17:08.306Z,101463.53
2023-01-23T04:19:35.365Z,101451.22
2023-01-23T04:22:02.004Z,101460.09
2023-01-23T04:24:28.522Z,101448.56
2023-01-23T04:26:55.203Z,101454.91
2023-01-23T04:29:21.754Z,101445.13
2023-01-23T04:31:48.365Z,101452.25
2023-01-23T04:34:14.931Z,101441.66
2023-01-23T04:36:41.436Z,101437.06
2023-01-23T04:39:08.056Z,101448.25
2023-01-23T04:41:34.856Z,101446.06
2023-01-23T04:44:20.500Z,101439.56
2023-01-23T04:46:49.968Z,101428.91
2023-01-23T04:49:18.715Z,101424.59
2023-01-23T04:51:48.030Z,101426.16
2023-01-23T04:54:15.244Z,101431.25
2023-01-23T04:56:42.036Z,101416.91
2023-01-23T04:59:08.598Z,101420.34
2023-01-23T05:01:35.389Z,101418.47
2023-01-23T05:04:02.177Z,101406.69
2023-01-23T05:06:29.069Z,101398.53
2023-01-23T05:08:55.680Z,101402.66
2023-01-23T05:11:22.379Z,101397.00
2023-01-23T05:13:49.052Z,101408.44
2023-01-23T05:16:15.806Z,101394.03
2023-01-23T05:18:42.325Z,101392.06
2023-01-23T05:21:08.879Z,101387.50
2023-01-23T05:23:35.471Z,101391.88
2023-01-23T05:26:02.004Z,101389.06
2023-01-23T05:28:28.606Z,101387.94
2023-01-23T05:30:55.200Z,101384.06
2023-01-23T05:33:21.937Z,101400.81
2023-01-23T05:35:48.452Z,101403.34
2023-01-23T05:38:15.034Z,101413.06
2023-01-23T05:40:41.560Z,101390.63
2023-01-23T05:43:11.523Z,101402.78
2023-01-23T05:45:38.025Z,101397.09
2023-01-23T05:48:04.786Z,101381.59
2023-01-23T05:50:33.168Z,101403.38
2023-01-23T05:53:00.936Z,101391.56
2023-01-23T05:55:27.493Z,101386.13
2023-01-23T05:57:53.972Z,101388.03
2023-01-23T06:00:21.070Z,101379.09
2023-01-23T06:02:48.121Z,101375.47
2023-01-23T06:05:14.846Z,101361.97
2023-01-23T06:07:41.380Z,101357.31
2023-01-23T06:10:16.846Z,101347.50
2023-01-23T06:12:43.684Z,101336.81
2023-01-23T06:15:10.886Z,101343.00
2023-01-23T06:17:37.470Z,101365.91
2023-01-23T06:20:04.825Z,101356.75
2023-01-23T06:22:31.610Z,101367.28
2023-01-23T06:24:58.148Z,101373.28
2023-01-23T06:27:24.731Z,101374.25
2023-01-23T06:29:51.268Z,101381.56
2023-01-23T06:32:17.831Z,101387.16
2023-01-23T06:34:44.553Z,101397.13
2023-01-23T06:37:11.220Z,101400.84
2023-01-23T06:39:38.043Z,101402.66
2023-01-23T06:42:06.080Z,101371.94
2023-01-23T06:44:32.602Z,101393.78
2023-01-23T06:46:59.131Z,101403.25
2023-01-23T06:49:25.660Z,101415.44
2023-01-23T06:51:52.180Z,101403.72
2023-01-23T06:54:18.746Z,101404.41
2023-01-23T06:56:45.317Z,101413.19
2023-01-23T06:59:12.013Z,101421.78
2023-01-23T07:01:38.638Z,101426.75
2023-01-23T07:04:05.215Z,101421.06
2023-01-23T07:06:31.970Z,101416.53
2023-01-23T07:08:58.554Z,101429.59
2023-01-23T07:11:25.350Z,101431.16
2023-01-23T07:13:51.870Z,101449.97
2023-01-23T07:16:19.296Z,101446.63
2023-01-23T07:18:45.897Z,101451.91
2023-01-23T07:21:12.463Z,101464.38
2023-01-23T07:23:38.981Z,101458.28
2023-01-23T07:26:09.730Z,101472.88
2023-01-23T07:28:37.309Z,101490.13
2023-01-23T07:31:04.292Z,101490.47
2023-01-23T07:33:31.153Z,101497.06
2023-01-23T07:35:57.664Z,101499.50
2023-01-23T07:38:24.278Z,101500.81
2023-01-23T07:40:51.123Z,101514.88
2023-01-23T07:43:18.253Z,101558.84
2023-01-23T07:45:45.108Z,101518.41
2023-01-23T07:48:11.676Z,101529.25
2023-01-23T07:50:38.219Z,101536.50
2023-01-23T07:53:05.885Z,101537.53
2023-01-23T07:55:32.397Z,101548.47
2023-01-23T07:57:58.942Z,101550.50
2023-01-23T08:00:29.238Z,101563.41
2023-01-23T08:02:56.737Z,101575.19
2023-01-23T08:05:23.316Z,101574.59
2023-01-23T08:07:50.994Z,101566.75
2023-01-23T08:10:19.277Z,101555.56
2023-01-23T08:12:45.875Z,101571.66
2023-01-23T08:15:12.593Z,101557.28
2023-01-23T08:17:39.195Z,101553.50
2023-01-23T08:20:06.211Z,101541.09
2023-01-23T08:22:33.428Z,101542.53
2023-01-23T08:24:59.980Z,101537.78
2023-01-23T08:27:26.470Z,101546.22
2023-01-23T08:29:53.037Z,101538.66
2023-01-23T08:32:19.591Z,101535.53
2023-01-23T08:34:46.191Z,101537.69
2023-01-23T08:37:12.702Z,101543.19
2023-01-23T08:39:39.221Z,101531.75
2023-01-23T08:42:05.752Z,101523.75
2023-01-23T08:44:34.272Z,101531.56
2023-01-23T08:47:03.718Z,101536.66
2023-01-23T08:49:30.286Z,101538.13
2023-01-23T08:51:57.750Z,101541.34
2023-01-23T08:54:24.427Z,101531.69
2023-01-23T08:56:51.052Z,101534.19
2023-01-23T08:59:17.613Z,101535.84
2023-01-23T09:01:44.192Z,101525.91
2023-01-23T09:04:10.700Z,101529.19
2023-01-23T09:06:37.235Z,101531.44
2023-01-23T09:09:03.827Z,101517.75
2023-01-23T09:11:30.350Z,101519.25
2023-01-23T09:13:58.175Z,101518.91
2023-01-23T09:16:24.707Z,101513.31
2023-01-23T09:18:51.238Z,101511.16
2023-01-23T09:21:17.822Z,101501.53
2023-01-23T09:23:44.391Z,101495.69
2023-01-23T09:26:12.505Z,101498.69
2023-01-23T09:28:42.052Z,101488.19
2023-01-23T09:31:10.941Z,101487.25
2023-01-23T09:33:37.831Z,101485.19
2023-01-23T09:36:05.387Z,101481.38
2023-01-23T09:38:34.044Z,101496.38
2023-01-23T09:41:01.544Z,101482.16
2023-01-23T09:43:31.137Z,101500.69
2023-01-23T09:46:03.304Z,101495.06
2023-01-23T09:48:45.133Z,101502.81
2023-01-23T09:51:40.224Z,101510.66
2023-01-23T09:54:46.547Z,101529.28
2023-01-23T09:57:19.743Z,101517.91
2023-01-23T10:00:00.123Z,101532.94
2023-01-23T10:02:27.597Z,101532.00
2023-01-23T10:04:54.560Z,101533.84
2023-01-23T10:07:45.502Z,101532.88
2023-01-23T10:10:43.088Z,101539.56
2023-01-23T10:13:19.891Z,101536.75
2023-01-23T10:16:12.989Z,101542.59
2023-01-23T10:19:07.911Z,101531.75
2023-01-23T10:21:37.245Z,101526.44
2023-01-23T10:24:09.809Z,101533.41
2023-01-23T10:26:42.424Z,101529.00
2023-01-23T10:29:27.716Z,101512.31
2023-01-23T10:31:58.654Z,101521.31
2023-01-23T10:34:39.704Z,101517.03
2023-01-23T10:37:46.247Z,101510.06
2023-01-23T10:40:16.764Z,101518.50
2023-01-23T10:42:43.561Z,101502.75
2023-01-23T10:45:18.507Z,101504.97
2023-01-23T10:47:51.999Z,101506.69
2023-01-23T10:50:35.265Z,101494.97
2023-01-23T10:53:12.053Z,101493.84
2023-01-23T10:55:45.530Z,101500.50
2023-01-23T10:58:28.713Z,101497.97
2023-01-23T11:00:55.303Z,101493.28
2023-01-23T11:03:21.797Z,101494.78
2023-01-23T11:05:56.793Z,101507.00
2023-01-23T11:08:27.595Z,101485.56
2023-01-23T11:10:55.164Z,101491.69
2023-01-23T11:13:27.997Z,101477.34
2023-01-23T11:15:55.157Z,101482.56
2023-01-23T11:18:34.149Z,101478.09
2023-01-23T11:21:01.901Z,101466.25
2023-01-23T11:23:29.485Z,101453.41
2023-01-23T11:25:56.169Z,101453.19
2023-01-23T11:28:30.919Z,101432.69
2023-01-23T11:31:19.621Z,101430.88
2023-01-23T11:33:52.323Z,101435.88
2023-01-23T11:36:19.023Z,101430.09
2023-01-23T11:38:52.617Z,101417.38
2023-01-23T11:41:23.280Z,101417.00
2023-01-23T11:43:49.855Z,101419.75
2023-01-23T11:46:40.386Z,101410.63
2023-01-23T11:49:28.846Z,101406.88
2023-01-23T11:52:19.122Z,101379.97
2023-01-23T11:54:45.663Z,101380.66
2023-01-23T11:57:24.383Z,101371.34
2023-01-23T12:00:02.555Z,101360.53
2023-01-23T12:02:49.422Z,101362.59
2023-01-23T12:05:16.379Z,101332.19
2023-01-23T12:07:59.568Z,101347.44
2023-01-23T12:10:42.441Z,101357.53
2023-01-23T12:13:13.137Z,101382.19
2023-01-23T12:15:51.781Z,101378.03
2023-01-23T12:18:49.783Z,101359.63
2023-01-23T12:21:22.860Z,101360.28
2023-01-23T12:24:09.507Z,101362.09
2023-01-23T12:26:41.360Z,101344.38
2023-01-23T12:29:54.055Z,101351.44
2023-01-23T12:32:53.106Z,101349.19
2023-01-23T12:36:07.688Z,101351.56
2023-01-23T12:38:42.525Z,101372.91
2023-01-23T12:41:13.503Z,101372.56
2023-01-23T12:44:10.279Z,101386.31
2023-01-23T12:46:53.777Z,101390.44
2023-01-23T12:49:41.179Z,101409.69
2023-01-23T12:52:20.457Z,101407.03
2023-01-23T12:54:53.169Z,101423.91
2023-01-23T12:57:52.837Z,101412.44
2023-01-23T13:01:06.930Z,101443.22
2023-01-23T13:03:46.435Z,101444.53
2023-01-23T13:06:37.605Z,101443.94
2023-01-23T13:10:08.650Z,101430.00
2023-01-23T13:12:35.377Z,101427.75
2023-01-23T13:15:40.103Z,101422.78
2023-01-23T13:18:22.750Z,101417.63
2023-01-23T13:21:14.950Z,101418.91
2023-01-23T13:23:41.537Z,101414.31
2023-01-23T13:26:29.107Z,101413.09
2023-01-23T13:28:57.561Z,101423.25
2023-01-23T13:31:26.228Z,101411.88
2023-01-23T13:33:58.748Z,101412.59
2023-01-23T13:36:33.465Z,101419.44
2023-01-23T13:39:22.493Z,101419.09
2023-01-23T13:42:16.073Z,101418.94
2023-01-23T13:45:16.755Z,101422.19
2023-01-23T14:22:10.776Z,101398.78
2023-01-23T14:24:45.869Z,101388.56
2023-01-23T14:27:51.288Z,101404.34
2023-01-23T14:30:24.003Z,101397.06
2023-01-23T14:32:50.583Z,101394.41
2023-01-23T14:35:23.785Z,101383.53
2023-01-23T14:37:51.043Z,101392.31
2023-01-23T14:40:27.230Z,101385.94
2023-01-23T14:43:00.243Z,101410.44
2023-01-23T14:45:32.194Z,101408.66
2023-01-23T14:48:06.000Z,101413.25
2023-01-23T14:50:33.791Z,101416.00
2023-01-23T14:53:01.971Z,101423.34
2023-01-23T14:55:30.272Z,101421.03
2023-01-23T14:57:59.159Z,101414.16
2023-01-23T15:00:26.447Z,101416.16
2023-01-23T15:02:54.527Z,101412.81
2023-01-23T15:05:23.710Z,101423.41
2023-01-23T15:07:57.162Z,101420.75
2023-01-23T15:10:25.439Z,101414.63
2023-01-23T15:13:05.262Z,101424.34
2023-01-23T15:15:33.411Z,101428.25
2023-01-23T15:18:01.554Z,101423.94
2023-01-23T15:20:38.354Z,101426.81
2023-01-23T15:23:36.600Z,101427.94
2023-01-23T15:26:18.258Z,101448.69
2023-01-23T15:29:03.845Z,101452.91
2023-01-23T15:31:32.411Z,101451.00
2023-01-23T15:34:14.907Z,101450.25
2023-01-23T15:37:06.466Z,101465.13
2023-01-23T15:39:54.661Z,101464.97
2023-01-23T15:42:33.213Z,101459.50
2023-01-23T15:45:03.839Z,101464.84
2023-01-23T15:47:31.473Z,101463.91
2023-01-23T15:50:01.815Z,101458.50
2023-01-23T15:52:48.918Z,101451.25
2023-01-23T15:55:15.772Z,101448.75
2023-01-23T15:57:43.419Z,101458.66
2023-01-23T16:00:24.930Z,101433.78
2023-01-23T16:02:56.693Z,101433.50
2023-01-23T16:05:29.270Z,101449.34
2023-01-23T16:07:57.447Z,101441.13
2023-01-23T16:10:39.235Z,101436.56
2023-01-23T16:13:07.601Z,101453.38
2023-01-23T16:15:35.204Z,101455.09
2023-01-23T16:18:04.577Z,101455.00
2023-01-23T16:20:39.903Z,101444.22
2023-01-23T16:23:16.651Z,101445.91
2023-01-23T16:25:45.741Z,101442.41
2023-01-23T16:28:18.352Z,101445.91
2023-01-23T16:30:45.286Z,101456.72
2023-01-23T16:33:12.219Z,101448.88
2023-01-23T16:35:39.036Z,101457.00
2023-01-23T16:38:06.416Z,101460.53
2023-01-23T16:40:34.235Z,101459.75
2023-01-23T16:43:02.986Z,101478.72
2023-01-23T16:45:31.118Z,101476.16
2023-01-23T16:47:57.852Z,101485.97
2023-01-23T16:50:40.764Z,101503.97
2023-01-23T16:53:10.253Z,101498.81
2023-01-23T16:55:40.282Z,101502.50
2023-01-23T16:58:10.450Z,101507.00
2023-01-23T17:00:37.110Z,101520.09
2023-01-23T17:03:08.564Z,101523.25
2023-01-23T17:05:35.243Z,101530.91
2023-01-23T17:08:17.830Z,101531.78
2023-01-23T17:10:47.043Z,101531.97
2023-01-23T17:13:14.527Z,101524.72
2023-01-23T17:15:41.468Z,101529.19
2023-01-23T17:18:22.474Z,101531.88
2023-01-23T17:20:49.210Z,101531.59
2023-01-23T17:23:15.864Z,101538.47
2023-01-23T17:25:59.079Z,101532.09
2023-01-23T17:28:26.754Z,101560.53
2023-01-23T17:30:54.170Z,101550.72
2023-01-23T17:33:21.480Z,101561.56
2023-01-23T17:35:48.522Z,101571.59
2023-01-23T17:38:20.107Z,101568.16
2023-01-23T17:40:46.920Z,101575.31
2023-01-23T17:43:14.422Z,101583.41
2023-01-23T17:45:43.096Z,101594.16
2023-01-23T17:48:37.217Z,101590.72
2023-01-23T17:51:04.034Z,101571.44
2023-01-23T17:53:30.864Z,101580.31
2023-01-23T17:55:57.510Z,101601.75
2023-01-23T17:58:24.118Z,101589.72
2023-01-23T18:00:53.353Z,101614.66
2023-01-23T18:03:21.828Z,101617.41
2023-01-23T18:05:48.775Z,101615.63
2023-01-23T18:08:17.076Z,101618.31
2023-01-23T18:10:49.206Z,101632.44
2023-01-23T18:13:33.797Z,101638.72
2023-01-23T18:16:08.127Z,101637.06
2023-01-23T18:18:39.092Z,101642.22
2023-01-23T18:21:07.700Z,101640.59
2023-01-23T18:23:37.893Z,101629.00
2023-01-23T18:26:39.111Z,101637.59
2023-01-23T18:29:17.983Z,101645.34
2023-01-23T18:31:56.546Z,101663.94
2023-01-23T18:34:53.574Z,101662.06
2023-01-23T18:37:45.813Z,101677.94
2023-01-23T18:40:23.765Z,101676.88
2023-01-23T18:43:08.709Z,101682.03
2023-01-23T18:45:35.600Z,101690.84
2023-01-23T18:48:02.461Z,101723.59
2023-01-23T18:50:29.377Z,101704.63
2023-01-23T18:53:06.201Z,101706.19
2023-01-23T18:55:35.631Z,101709.53
2023-01-23T18:58:29.275Z,101739.72
2023-01-23T19:01:17.850Z,101733.25
2023-01-23T19:03:45.559Z,101737.47
2023-01-23T19:06:20.383Z,101754.28
2023-01-23T19:08:47.963Z,101755.06
2023-01-23T19:11:25.627Z,101748.75
2023-01-23T19:14:11.581Z,101758.41
2023-01-23T19:16:42.340Z,101752.38
2023-01-23T19:19:21.304Z,101760.50
2023-01-23T19:21:48.136Z,101766.00
2023-01-23T19:24:18.649Z,101763.31
2023-01-23T19:26:45.654Z,101775.13
2023-01-23T19:29:22.929Z,101780.72
2023-01-23T19:32:03.631Z,101779.94
2023-01-23T19:34:31.210Z,101788.94
2023-01-23T19:36:57.809Z,101776.69
2023-01-23T19:39:24.432Z,101787.53
2023-01-23T19:41:51.957Z,101793.84
2023-01-23T19:44:19.883Z,101798.06
2023-01-23T19:46:47.076Z,101807.00
2023-01-23T19:49:14.082Z,101807.19
2023-01-23T19:51:41.070Z,101808.13
2023-01-23T19:54:09.459Z,101814.56
2023-01-23T19:56:36.556Z,101815.47
2023-01-23T19:59:03.135Z,101829.94
2023-01-23T20:01:40.414Z,101816.66
2023-01-23T20:04:16.074Z,101833.53
2023-01-23T20:06:45.350Z,101859.38
2023-01-23T20:09:14.564Z,101851.19
2023-01-23T20:11:42.016Z,101866.22
2023-01-23T20:14:08.564Z,101864.22
2023-01-23T20:16:35.223Z,101867.69
2023-01-23T20:19:01.801Z,101867.53
2023-01-23T20:21:28.371Z,101878.22
2023-01-23T20:23:54.880Z,101879.94
2023-01-23T20:26:21.856Z,101897.53
2023-01-23T20:28:50.318Z,101884.94
2023-01-23T20:31:17.460Z,101896.53
2023-01-23T20:33:44.108Z,101898.41
2023-01-23T20:36:11.547Z,101888.72
2023-01-23T20:38:39.017Z,101899.41
2023-01-23T20:41:11.692Z,101917.34
2023-01-23T20:43:38.616Z,101913.22
2023-01-23T20:46:06.677Z,101921.28
2023-01-23T20:48:34.791Z,101918.75
2023-01-23T20:51:01.315Z,101955.38
2023-01-23T20:53:30.782Z,101938.59
2023-01-23T20:56:19.044Z,101937.97
2023-01-23T20:59:06.432Z,101938.13
2023-01-23T21:01:56.700Z,101940.81
2023-01-23T21:04:25.216Z,101953.28
2023-01-23T21:06:51.979Z,101962.16
2023-01-23T21:09:18.779Z,101948.97
2023-01-23T21:11:45.565Z,101961.47
2023-01-23T21:14:13.354Z,101972.06
2023-01-23T21:16:39.986Z,101965.06
2023-01-23T21:19:06.505Z,101981.31
2023-01-23T21:21:33.162Z,101991.63
2023-01-23T21:23:59.906Z,102009.72
2023-01-23T21:26:27.761Z,102006.84
2023-01-23T21:28:55.943Z,102035.03
2023-01-23T21:31:25.300Z,102011.53
2023-01-23T21:33:51.898Z,101986.34
2023-01-23T21:36:21.400Z,102010.84
2023-01-23T21:38:48.979Z,102013.25
2023-01-23T21:41:16.955Z,102022.28
2023-01-23T21:43:43.654Z,102042.53
2023-01-23T21:46:10.348Z,102024.88
2023-01-23T21:48:37.103Z,102048.34
2023-01-23T21:51:12.054Z,102036.25
2023-01-23T21:53:40.096Z,102051.69
2023-01-23T21:56:08.098Z,102052.88
2023-01-23T21:58:34.971Z,102068.94
2023-01-23T22:01:22.971Z,102067.97
2023-01-23T22:03:49.883Z,102078.88
2023-01-23T22:06:16.717Z,102082.88
2023-01-23T22:08:43.208Z,102097.63
2023-01-23T22:11:10.790Z,102087.53
2023-01-23T22:13:38.023Z,102105.06
2023-01-23T22:16:05.423Z,102108.25
2023-01-23T22:18:32.937Z,102115.69
2023-01-23T22:21:01.786Z,102099.91
2023-01-23T22:23:28.661Z,102125.75
2023-01-23T22:25:57.354Z,102116.34
2023-01-23T22:28:23.915Z,102130.91
2023-01-23T22:30:50.473Z,102147.16
2023-01-23T22:33:17.327Z,102142.13
2023-01-23T22:35:44.303Z,102149.28
2023-01-23T22:38:12.492Z,102156.56
2023-01-23T22:40:39.052Z,102158.53
2023-01-23T22:43:06.965Z,102157.59
2023-01-23T22:45:33.581Z,102162.97
2023-01-23T22:48:00.179Z,102159.56
2023-01-23T22:50:27.507Z,102167.44
2023-01-23T22:52:54.074Z,102161.94
2023-01-23T22:55:21.011Z,102168.94
2023-01-23T22:57:47.725Z,102176.97
2023-01-23T23:00:16.169Z,102173.63
2023-01-23T23:02:42.831Z,102183.28
2023-01-23T23:05:09.717Z,102186.63
2023-01-23T23:07:36.863Z,102183.22
2023-01-23T23:10:11.110Z,102185.19
2023-01-23T23:12:37.774Z,102186.19
2023-01-23T23:15:04.817Z,102208.53
2023-01-23T23:17:31.385Z,102195.22
2023-01-23T23:19:57.946Z,102203.34
2023-01-23T23:22:24.573Z,102213.25
2023-01-23T23:24:51.081Z,102197.47
2023-01-23T23:27:17.575Z,102196.03
2023-01-23T23:29:44.236Z,102204.13
2023-01-23T23:32:10.918Z,102226.44
2023-01-23T23:34:37.540Z,102227.50
2023-01-23T23:37:04.177Z,102227.38
2023-01-23T23:39:30.761Z,102217.53
2023-01-23T23:41:58.621Z,102225.31
2023-01-23T23:44:25.934Z,102222.38
2023-01-23T23:46:52.480Z,102225.66
2023-01-23T23:49:19.027Z,102227.50
2023-01-23T23:51:45.579Z,102226.66
2023-01-23T23:54:12.168Z,102233.88
2023-01-23T23:56:38.700Z,102236.50
2023-01-23T23:59:05.239Z,102226.53
